sensor_id;sensor_type;location;lat;lon;timestamp;P1;durP1;ratioP1;P2;durP2;ratioP2
73170;SDS011;61381;50.118;19.962;2023-11-19T00:04:17;18.80;;;6.57;;
73170;SDS011;61381;50.118;19.962;2023-11-19T00:09:19;17.08;;;6.75;;
73170;SDS011;61381;50.118;19.962;2023-11-19T00:14:20;12.27;;;5.68;;
73170;SDS011;61381;50.118;19.962;2023-11-19T00:19:21;11.15;;;5.13;;
73170;SDS011;61381;50.118;19.962;2023-11-19T00:24:23;15.43;;;6.55;;
73170;SDS011;61381;50.118;19.962;2023-11-19T00:29:24;12.45;;;5.15;;
73170;SDS011;61381;50.118;19.962;2023-11-19T00:34:25;13.85;;;6.50;;
73170;SDS011;61381;50.118;19.962;2023-11-19T00:39:27;14.75;;;5.63;;
73170;SDS011;61381;50.118;19.962;2023-11-19T00:44:28;14.38;;;8.63;;
73170;SDS011;61381;50.118;19.962;2023-11-19T00:49:29;15.23;;;6.65;;
73170;SDS011;61381;50.118;19.962;2023-11-19T00:54:32;17.27;;;6.35;;
73170;SDS011;61381;50.118;19.962;2023-11-19T00:59:33;14.18;;;6.20;;
73170;SDS011;61381;50.118;19.962;2023-11-19T01:04:34;15.32;;;6.65;;
73170;SDS011;61381;50.118;19.962;2023-11-19T01:14:37;18.17;;;7.10;;
73170;SDS011;61381;50.118;19.962;2023-11-19T01:19:38;15.98;;;6.60;;
73170;SDS011;61381;50.118;19.962;2023-11-19T01:24:41;14.52;;;6.72;;
73170;SDS011;61381;50.118;19.962;2023-11-19T01:29:42;14.48;;;6.90;;
73170;SDS011;61381;50.118;19.962;2023-11-19T01:34:43;18.13;;;7.13;;
73170;SDS011;61381;50.118;19.962;2023-11-19T01:39:45;17.33;;;6.60;;
73170;SDS011;61381;50.118;19.962;2023-11-19T01:44:54;15.45;;;6.72;;
73170;SDS011;61381;50.118;19.962;2023-11-19T01:49:58;17.92;;;6.75;;
73170;SDS011;61381;50.118;19.962;2023-11-19T01:55:01;22.48;;;8.25;;
73170;SDS011;61381;50.118;19.962;2023-11-19T02:00:03;18.92;;;7.22;;
73170;SDS011;61381;50.118;19.962;2023-11-19T02:05:05;16.80;;;7.13;;
73170;SDS011;61381;50.118;19.962;2023-11-19T02:10:09;17.88;;;6.72;;
73170;SDS011;61381;50.118;19.962;2023-11-19T02:15:10;20.35;;;7.38;;
73170;SDS011;61381;50.118;19.962;2023-11-19T02:20:11;16.67;;;5.85;;
73170;SDS011;61381;50.118;19.962;2023-11-19T02:25:15;20.30;;;7.53;;
73170;SDS011;61381;50.118;19.962;2023-11-19T02:30:22;17.83;;;6.82;;
73170;SDS011;61381;50.118;19.962;2023-11-19T02:35:23;17.35;;;6.22;;
73170;SDS011;61381;50.118;19.962;2023-11-19T02:40:24;17.40;;;6.75;;
73170;SDS011;61381;50.118;19.962;2023-11-19T02:45:26;18.05;;;7.28;;
73170;SDS011;61381;50.118;19.962;2023-11-19T02:50:27;17.05;;;6.97;;
73170;SDS011;61381;50.118;19.962;2023-11-19T02:55:28;21.60;;;7.20;;
73170;SDS011;61381;50.118;19.962;2023-11-19T03:00:31;19.58;;;6.93;;
73170;SDS011;61381;50.118;19.962;2023-11-19T03:05:32;18.42;;;6.78;;
73170;SDS011;61381;50.118;19.962;2023-11-19T03:10:33;19.50;;;7.38;;
73170;SDS011;61381;50.118;19.962;2023-11-19T03:15:35;21.58;;;7.97;;
73170;SDS011;61381;50.118;19.962;2023-11-19T03:20:36;18.52;;;7.60;;
73170;SDS011;61381;50.118;19.962;2023-11-19T03:25:37;22.80;;;8.13;;
73170;SDS011;61381;50.118;19.962;2023-11-19T03:30:39;15.77;;;7.57;;
73170;SDS011;61381;50.118;19.962;2023-11-19T03:35:40;20.25;;;7.78;;
73170;SDS011;61381;50.118;19.962;2023-11-19T03:40:41;21.83;;;8.40;;
73170;SDS011;61381;50.118;19.962;2023-11-19T03:45:43;18.85;;;8.27;;
73170;SDS011;61381;50.118;19.962;2023-11-19T03:50:44;21.23;;;7.25;;
73170;SDS011;61381;50.118;19.962;2023-11-19T03:55:45;18.95;;;6.68;;
73170;SDS011;61381;50.118;19.962;2023-11-19T04:00:48;18.10;;;7.60;;
73170;SDS011;61381;50.118;19.962;2023-11-19T04:05:49;23.60;;;7.32;;
73170;SDS011;61381;50.118;19.962;2023-11-19T04:10:50;22.27;;;7.97;;
73170;SDS011;61381;50.118;19.962;2023-11-19T04:15:52;19.50;;;8.05;;
73170;SDS011;61381;50.118;19.962;2023-11-19T04:20:53;22.60;;;8.88;;
73170;SDS011;61381;50.118;19.962;2023-11-19T04:25:54;21.98;;;7.63;;
73170;SDS011;61381;50.118;19.962;2023-11-19T04:30:56;22.67;;;8.98;;
73170;SDS011;61381;50.118;19.962;2023-11-19T04:35:57;22.33;;;7.70;;
73170;SDS011;61381;50.118;19.962;2023-11-19T04:40:58;26.27;;;9.57;;
73170;SDS011;61381;50.118;19.962;2023-11-19T04:46:00;24.38;;;8.75;;
73170;SDS011;61381;50.118;19.962;2023-11-19T04:51:04;24.13;;;9.52;;
73170;SDS011;61381;50.118;19.962;2023-11-19T04:56:08;21.60;;;7.68;;
73170;SDS011;61381;50.118;19.962;2023-11-19T05:01:14;26.33;;;10.02;;
73170;SDS011;61381;50.118;19.962;2023-11-19T05:06:15;25.90;;;9.60;;
73170;SDS011;61381;50.118;19.962;2023-11-19T05:11:16;28.20;;;10.15;;
73170;SDS011;61381;50.118;19.962;2023-11-19T05:16:18;39.38;;;12.98;;
73170;SDS011;61381;50.118;19.962;2023-11-19T05:21:19;34.10;;;11.98;;
73170;SDS011;61381;50.118;19.962;2023-11-19T05:26:20;33.63;;;11.82;;
73170;SDS011;61381;50.118;19.962;2023-11-19T05:31:24;31.52;;;10.27;;
73170;SDS011;61381;50.118;19.962;2023-11-19T05:36:25;27.73;;;9.55;;
73170;SDS011;61381;50.118;19.962;2023-11-19T05:41:25;31.42;;;10.48;;
73170;SDS011;61381;50.118;19.962;2023-11-19T05:46:28;28.73;;;10.95;;
73170;SDS011;61381;50.118;19.962;2023-11-19T05:51:29;29.70;;;9.48;;
73170;SDS011;61381;50.118;19.962;2023-11-19T05:56:30;29.83;;;10.07;;
73170;SDS011;61381;50.118;19.962;2023-11-19T06:01:32;25.65;;;9.70;;
73170;SDS011;61381;50.118;19.962;2023-11-19T06:06:34;29.13;;;10.48;;
73170;SDS011;61381;50.118;19.962;2023-11-19T06:11:35;30.10;;;10.65;;
73170;SDS011;61381;50.118;19.962;2023-11-19T06:16:37;26.60;;;10.02;;
73170;SDS011;61381;50.118;19.962;2023-11-19T06:21:38;26.38;;;10.15;;
73170;SDS011;61381;50.118;19.962;2023-11-19T06:26:39;33.38;;;10.63;;
73170;SDS011;61381;50.118;19.962;2023-11-19T06:31:41;25.48;;;9.93;;
73170;SDS011;61381;50.118;19.962;2023-11-19T06:36:42;25.88;;;11.73;;
73170;SDS011;61381;50.118;19.962;2023-11-19T06:41:46;27.55;;;10.10;;
73170;SDS011;61381;50.118;19.962;2023-11-19T06:46:49;27.63;;;9.75;;
73170;SDS011;61381;50.118;19.962;2023-11-19T06:51:50;31.83;;;10.98;;
73170;SDS011;61381;50.118;19.962;2023-11-19T06:56:51;28.42;;;10.20;;
73170;SDS011;61381;50.118;19.962;2023-11-19T07:01:53;29.08;;;10.93;;
73170;SDS011;61381;50.118;19.962;2023-11-19T07:06:54;18.92;;;8.25;;
73170;SDS011;61381;50.118;19.962;2023-11-19T07:11:55;36.95;;;11.10;;
73170;SDS011;61381;50.118;19.962;2023-11-19T07:16:57;25.52;;;10.60;;
73170;SDS011;61381;50.118;19.962;2023-11-19T07:21:58;25.40;;;9.63;;
73170;SDS011;61381;50.118;19.962;2023-11-19T07:26:59;33.58;;;11.57;;
73170;SDS011;61381;50.118;19.962;2023-11-19T07:32:02;35.17;;;14.07;;
73170;SDS011;61381;50.118;19.962;2023-11-19T07:37:03;40.95;;;14.63;;
73170;SDS011;61381;50.118;19.962;2023-11-19T07:42:04;36.05;;;15.23;;
73170;SDS011;61381;50.118;19.962;2023-11-19T07:52:07;28.90;;;10.52;;
73170;SDS011;61381;50.118;19.962;2023-11-19T07:57:08;24.77;;;9.40;;
73170;SDS011;61381;50.118;19.962;2023-11-19T08:02:10;31.38;;;10.80;;
73170;SDS011;61381;50.118;19.962;2023-11-19T08:07:11;26.73;;;10.20;;
73170;SDS011;61381;50.118;19.962;2023-11-19T08:12:12;23.20;;;8.65;;
73170;SDS011;61381;50.118;19.962;2023-11-19T08:17:15;15.18;;;5.25;;
73170;SDS011;61381;50.118;19.962;2023-11-19T08:22:16;14.10;;;5.38;;
73170;SDS011;61381;50.118;19.962;2023-11-19T08:27:17;17.30;;;5.97;;
73170;SDS011;61381;50.118;19.962;2023-11-19T08:37:20;16.20;;;5.25;;
73170;SDS011;61381;50.118;19.962;2023-11-19T08:47:23;14.73;;;6.28;;
73170;SDS011;61381;50.118;19.962;2023-11-19T08:52:24;11.00;;;4.45;;
73170;SDS011;61381;50.118;19.962;2023-11-19T09:02:27;11.00;;;4.80;;
73170;SDS011;61381;50.118;19.962;2023-11-19T09:07:28;12.60;;;5.85;;
73170;SDS011;61381;50.118;19.962;2023-11-19T09:17:31;12.73;;;5.47;;
73170;SDS011;61381;50.118;19.962;2023-11-19T09:22:32;14.32;;;5.40;;
73170;SDS011;61381;50.118;19.962;2023-11-19T09:27:33;12.75;;;5.65;;
73170;SDS011;61381;50.118;19.962;2023-11-19T09:32:35;14.30;;;5.88;;
73170;SDS011;61381;50.118;19.962;2023-11-19T09:37:36;11.73;;;5.28;;
73170;SDS011;61381;50.118;19.962;2023-11-19T09:47:45;10.68;;;5.13;;
73170;SDS011;61381;50.118;19.962;2023-11-19T09:52:47;11.27;;;4.95;;
73170;SDS011;61381;50.118;19.962;2023-11-19T09:57:48;12.80;;;5.75;;
73170;SDS011;61381;50.118;19.962;2023-11-19T10:02:54;13.07;;;5.78;;
73170;SDS011;61381;50.118;19.962;2023-11-19T10:07:56;11.82;;;4.78;;
73170;SDS011;61381;50.118;19.962;2023-11-19T10:12:57;14.82;;;5.28;;
73170;SDS011;61381;50.118;19.962;2023-11-19T10:17:59;11.43;;;5.20;;
73170;SDS011;61381;50.118;19.962;2023-11-19T10:23:00;9.52;;;4.80;;
73170;SDS011;61381;50.118;19.962;2023-11-19T10:28:01;15.32;;;6.00;;
73170;SDS011;61381;50.118;19.962;2023-11-19T10:33:05;13.07;;;5.88;;
73170;SDS011;61381;50.118;19.962;2023-11-19T10:38:13;11.63;;;5.43;;
73170;SDS011;61381;50.118;19.962;2023-11-19T10:43:16;12.63;;;5.85;;
73170;SDS011;61381;50.118;19.962;2023-11-19T10:48:18;9.60;;;4.47;;
73170;SDS011;61381;50.118;19.962;2023-11-19T10:53:19;12.82;;;5.63;;
73170;SDS011;61381;50.118;19.962;2023-11-19T10:58:23;13.68;;;5.57;;
73170;SDS011;61381;50.118;19.962;2023-11-19T11:03:29;9.15;;;4.80;;
73170;SDS011;61381;50.118;19.962;2023-11-19T11:08:37;12.38;;;5.88;;
73170;SDS011;61381;50.118;19.962;2023-11-19T11:13:40;12.02;;;5.03;;
73170;SDS011;61381;50.118;19.962;2023-11-19T11:18:44;11.82;;;5.72;;
73170;SDS011;61381;50.118;19.962;2023-11-19T11:23:56;13.02;;;5.10;;
73170;SDS011;61381;50.118;19.962;2023-11-19T11:29:24;11.73;;;4.45;;
73170;SDS011;61381;50.118;19.962;2023-11-19T11:34:37;9.93;;;4.55;;
73170;SDS011;61381;50.118;19.962;2023-11-19T11:39:49;10.93;;;5.25;;
73170;SDS011;61381;50.118;19.962;2023-11-19T11:45:00;10.38;;;4.90;;
73170;SDS011;61381;50.118;19.962;2023-11-19T11:50:07;10.10;;;5.25;;
73170;SDS011;61381;50.118;19.962;2023-11-19T11:55:10;14.02;;;6.35;;
73170;SDS011;61381;50.118;19.962;2023-11-19T12:00:12;10.32;;;5.35;;
73170;SDS011;61381;50.118;19.962;2023-11-19T12:05:23;14.20;;;5.90;;
73170;SDS011;61381;50.118;19.962;2023-11-19T12:10:25;11.85;;;5.47;;
73170;SDS011;61381;50.118;19.962;2023-11-19T12:15:26;10.88;;;5.25;;
73170;SDS011;61381;50.118;19.962;2023-11-19T12:20:28;12.60;;;4.50;;
73170;SDS011;61381;50.118;19.962;2023-11-19T12:25:34;10.70;;;4.82;;
73170;SDS011;61381;50.118;19.962;2023-11-19T12:30:35;9.70;;;4.38;;
73170;SDS011;61381;50.118;19.962;2023-11-19T12:40:40;10.48;;;4.03;;
73170;SDS011;61381;50.118;19.962;2023-11-19T12:45:41;6.97;;;3.05;;
73170;SDS011;61381;50.118;19.962;2023-11-19T12:50:53;8.38;;;3.83;;
73170;SDS011;61381;50.118;19.962;2023-11-19T12:55:55;7.80;;;3.35;;
73170;SDS011;61381;50.118;19.962;2023-11-19T13:01:00;8.15;;;3.42;;
73170;SDS011;61381;50.118;19.962;2023-11-19T13:06:04;10.63;;;3.78;;
73170;SDS011;61381;50.118;19.962;2023-11-19T13:11:06;8.75;;;3.47;;
73170;SDS011;61381;50.118;19.962;2023-11-19T13:16:07;6.15;;;3.35;;
73170;SDS011;61381;50.118;19.962;2023-11-19T13:21:09;9.35;;;4.60;;
73170;SDS011;61381;50.118;19.962;2023-11-19T13:26:10;10.98;;;4.63;;
73170;SDS011;61381;50.118;19.962;2023-11-19T13:31:11;9.30;;;3.90;;
73170;SDS011;61381;50.118;19.962;2023-11-19T13:36:14;8.27;;;3.85;;
73170;SDS011;61381;50.118;19.962;2023-11-19T13:41:15;10.35;;;3.92;;
73170;SDS011;61381;50.118;19.962;2023-11-19T13:46:16;11.05;;;5.15;;
73170;SDS011;61381;50.118;19.962;2023-11-19T13:51:18;10.80;;;4.45;;
73170;SDS011;61381;50.118;19.962;2023-11-19T13:56:19;7.55;;;3.22;;
73170;SDS011;61381;50.118;19.962;2023-11-19T14:01:20;8.60;;;3.83;;
73170;SDS011;61381;50.118;19.962;2023-11-19T14:11:23;8.75;;;4.10;;
73170;SDS011;61381;50.118;19.962;2023-11-19T14:16:26;8.30;;;4.18;;
73170;SDS011;61381;50.118;19.962;2023-11-19T14:21:28;8.95;;;4.15;;
73170;SDS011;61381;50.118;19.962;2023-11-19T14:26:29;10.00;;;4.07;;
73170;SDS011;61381;50.118;19.962;2023-11-19T14:31:30;10.98;;;4.43;;
73170;SDS011;61381;50.118;19.962;2023-11-19T14:36:32;10.25;;;5.00;;
73170;SDS011;61381;50.118;19.962;2023-11-19T14:41:33;8.85;;;4.55;;
73170;SDS011;61381;50.118;19.962;2023-11-19T14:46:34;8.90;;;4.35;;
73170;SDS011;61381;50.118;19.962;2023-11-19T14:51:37;8.50;;;4.72;;
73170;SDS011;61381;50.118;19.962;2023-11-19T14:56:38;11.07;;;4.22;;
73170;SDS011;61381;50.118;19.962;2023-11-19T15:01:39;8.32;;;4.00;;
73170;SDS011;61381;50.118;19.962;2023-11-19T15:06:41;9.55;;;3.45;;
73170;SDS011;61381;50.118;19.962;2023-11-19T15:11:42;9.10;;;4.38;;
73170;SDS011;61381;50.118;19.962;2023-11-19T15:16:43;11.90;;;4.95;;
73170;SDS011;61381;50.118;19.962;2023-11-19T15:21:46;11.75;;;6.13;;
73170;SDS011;61381;50.118;19.962;2023-11-19T15:26:47;18.65;;;7.43;;
73170;SDS011;61381;50.118;19.962;2023-11-19T15:31:48;13.95;;;7.05;;
73170;SDS011;61381;50.118;19.962;2023-11-19T15:36:51;14.02;;;6.32;;
73170;SDS011;61381;50.118;19.962;2023-11-19T15:41:51;14.15;;;5.80;;
73170;SDS011;61381;50.118;19.962;2023-11-19T15:46:52;14.82;;;6.30;;
73170;SDS011;61381;50.118;19.962;2023-11-19T15:51:55;15.50;;;6.78;;
73170;SDS011;61381;50.118;19.962;2023-11-19T15:56:56;20.40;;;7.70;;
73170;SDS011;61381;50.118;19.962;2023-11-19T16:01:57;15.85;;;6.93;;
73170;SDS011;61381;50.118;19.962;2023-11-19T16:06:59;14.77;;;7.72;;
73170;SDS011;61381;50.118;19.962;2023-11-19T16:12:00;16.13;;;7.55;;
73170;SDS011;61381;50.118;19.962;2023-11-19T16:17:01;17.42;;;6.97;;
73170;SDS011;61381;50.118;19.962;2023-11-19T16:27:04;12.93;;;5.63;;
73170;SDS011;61381;50.118;19.962;2023-11-19T16:32:06;16.88;;;7.32;;
73170;SDS011;61381;50.118;19.962;2023-11-19T16:37:08;21.98;;;9.68;;
73170;SDS011;61381;50.118;19.962;2023-11-19T16:42:09;20.42;;;8.60;;
73170;SDS011;61381;50.118;19.962;2023-11-19T16:47:10;22.35;;;10.80;;
73170;SDS011;61381;50.118;19.962;2023-11-19T16:52:12;14.82;;;6.63;;
73170;SDS011;61381;50.118;19.962;2023-11-19T16:57:13;10.18;;;5.35;;
73170;SDS011;61381;50.118;19.962;2023-11-19T17:02:14;14.93;;;6.65;;
73170;SDS011;61381;50.118;19.962;2023-11-19T17:07:17;10.73;;;5.18;;
73170;SDS011;61381;50.118;19.962;2023-11-19T17:12:18;16.92;;;7.00;;
73170;SDS011;61381;50.118;19.962;2023-11-19T17:17:19;18.83;;;8.85;;
73170;SDS011;61381;50.118;19.962;2023-11-19T17:22:21;16.80;;;7.13;;
73170;SDS011;61381;50.118;19.962;2023-11-19T17:27:22;14.60;;;7.65;;
73170;SDS011;61381;50.118;19.962;2023-11-19T17:32:23;16.75;;;7.63;;
73170;SDS011;61381;50.118;19.962;2023-11-19T17:37:26;20.88;;;8.57;;
73170;SDS011;61381;50.118;19.962;2023-11-19T17:42:27;18.92;;;7.47;;
73170;SDS011;61381;50.118;19.962;2023-11-19T17:47:28;27.02;;;11.60;;
73170;SDS011;61381;50.118;19.962;2023-11-19T17:52:31;17.27;;;6.68;;
73170;SDS011;61381;50.118;19.962;2023-11-19T17:57:32;22.50;;;9.23;;
73170;SDS011;61381;50.118;19.962;2023-11-19T18:02:33;26.42;;;11.15;;
73170;SDS011;61381;50.118;19.962;2023-11-19T18:07:35;24.67;;;10.18;;
73170;SDS011;61381;50.118;19.962;2023-11-19T18:12:36;22.13;;;9.30;;
73170;SDS011;61381;50.118;19.962;2023-11-19T18:17:37;21.10;;;10.57;;
73170;SDS011;61381;50.118;19.962;2023-11-19T18:22:40;29.30;;;12.27;;
73170;SDS011;61381;50.118;19.962;2023-11-19T18:27:41;23.35;;;10.15;;
73170;SDS011;61381;50.118;19.962;2023-11-19T18:32:42;30.05;;;13.60;;
73170;SDS011;61381;50.118;19.962;2023-11-19T18:37:45;29.10;;;12.02;;
73170;SDS011;61381;50.118;19.962;2023-11-19T18:42:46;23.77;;;11.18;;
73170;SDS011;61381;50.118;19.962;2023-11-19T19:00:33;31.73;;;13.98;;
73170;SDS011;61381;50.118;19.962;2023-11-19T19:05:34;27.58;;;12.60;;
73170;SDS011;61381;50.118;19.962;2023-11-19T19:10:35;28.08;;;13.38;;
73170;SDS011;61381;50.118;19.962;2023-11-19T19:15:38;33.05;;;12.93;;
73170;SDS011;61381;50.118;19.962;2023-11-19T19:20:39;29.52;;;12.75;;
73170;SDS011;61381;50.118;19.962;2023-11-19T19:25:40;31.52;;;12.10;;
73170;SDS011;61381;50.118;19.962;2023-11-19T19:30:42;28.73;;;13.95;;
73170;SDS011;61381;50.118;19.962;2023-11-19T19:35:44;28.10;;;11.88;;
73170;SDS011;61381;50.118;19.962;2023-11-19T19:40:45;27.50;;;13.77;;
73170;SDS011;61381;50.118;19.962;2023-11-19T19:45:47;27.55;;;13.30;;
73170;SDS011;61381;50.118;19.962;2023-11-19T19:50:48;30.77;;;12.77;;
73170;SDS011;61381;50.118;19.962;2023-11-19T19:55:49;29.20;;;12.93;;
73170;SDS011;61381;50.118;19.962;2023-11-19T20:00:52;38.95;;;17.88;;
73170;SDS011;61381;50.118;19.962;2023-11-19T20:05:55;49.13;;;20.50;;
73170;SDS011;61381;50.118;19.962;2023-11-19T20:10:56;41.13;;;18.13;;
73170;SDS011;61381;50.118;19.962;2023-11-19T20:15:59;35.05;;;15.10;;
73170;SDS011;61381;50.118;19.962;2023-11-19T20:21:00;43.72;;;15.75;;
73170;SDS011;61381;50.118;19.962;2023-11-19T20:26:01;36.65;;;15.73;;
73170;SDS011;61381;50.118;19.962;2023-11-19T20:31:03;43.90;;;17.70;;
73170;SDS011;61381;50.118;19.962;2023-11-19T20:36:04;36.85;;;16.05;;
73170;SDS011;61381;50.118;19.962;2023-11-19T20:41:05;33.58;;;15.73;;
73170;SDS011;61381;50.118;19.962;2023-11-19T20:46:08;24.77;;;12.38;;
73170;SDS011;61381;50.118;19.962;2023-11-19T20:51:09;21.83;;;9.88;;
73170;SDS011;61381;50.118;19.962;2023-11-19T20:56:10;16.83;;;8.18;;
73170;SDS011;61381;50.118;19.962;2023-11-19T21:01:12;17.33;;;9.25;;
73170;SDS011;61381;50.118;19.962;2023-11-19T21:06:13;22.45;;;10.23;;
73170;SDS011;61381;50.118;19.962;2023-11-19T21:11:14;20.95;;;10.75;;
73170;SDS011;61381;50.118;19.962;2023-11-19T21:16:17;30.17;;;10.75;;
73170;SDS011;61381;50.118;19.962;2023-11-19T21:21:18;17.25;;;6.10;;
73170;SDS011;61381;50.118;19.962;2023-11-19T21:26:19;15.73;;;7.85;;
73170;SDS011;61381;50.118;19.962;2023-11-19T21:36:22;12.95;;;4.97;;
73170;SDS011;61381;50.118;19.962;2023-11-19T21:41:23;11.48;;;4.53;;
73170;SDS011;61381;50.118;19.962;2023-11-19T21:51:26;13.07;;;6.25;;
73170;SDS011;61381;50.118;19.962;2023-11-19T21:56:27;10.18;;;5.20;;
73170;SDS011;61381;50.118;19.962;2023-11-19T22:06:30;19.17;;;9.32;;
73170;SDS011;61381;50.118;19.962;2023-11-19T22:11:31;14.40;;;6.90;;
73170;SDS011;61381;50.118;19.962;2023-11-19T22:21:34;15.68;;;7.35;;
73170;SDS011;61381;50.118;19.962;2023-11-19T22:31:37;15.10;;;6.53;;
73170;SDS011;61381;50.118;19.962;2023-11-19T22:36:38;10.27;;;5.15;;
73170;SDS011;61381;50.118;19.962;2023-11-19T22:41:39;12.65;;;6.95;;
73170;SDS011;61381;50.118;19.962;2023-11-19T22:46:41;10.75;;;5.35;;
73170;SDS011;61381;50.118;19.962;2023-11-19T22:51:42;10.27;;;4.95;;
73170;SDS011;61381;50.118;19.962;2023-11-19T23:02:55;11.05;;;5.32;;
73170;SDS011;61381;50.118;19.962;2023-11-19T23:07:57;12.77;;;6.97;;
73170;SDS011;61381;50.118;19.962;2023-11-19T23:12:58;18.40;;;9.68;;
73170;SDS011;61381;50.118;19.962;2023-11-19T23:23:01;20.05;;;8.57;;
73170;SDS011;61381;50.118;19.962;2023-11-19T23:28:02;18.15;;;8.38;;
73170;SDS011;61381;50.118;19.962;2023-11-19T23:38:05;14.55;;;7.63;;
73170;SDS011;61381;50.118;19.962;2023-11-19T23:48:08;14.00;;;5.85;;
73170;SDS011;61381;50.118;19.962;2023-11-19T23:53:09;15.80;;;7.88;;
73170;SDS011;61381;50.118;19.962;2023-11-19T23:58:10;15.75;;;7.15;;
